Time;durP1;ratioP1;P1;durP2;ratioP2;P2;SDS_P1;SDS_P2;PMS_P1;PMS_P2;Temp;Humidity;BMP_temperature;BMP_pressure;BME280_temperature;BME280_humidity;BME280_pressure;Samples;Min_cycle;Max_cycle;Signal;HPM_P1;HPM_P2
2020/12/01 00:00:01;;;;;;;30.17;17.13;;;;;;;;;;5082385;22;20469;-72
2020/12/01 00:02:28;;;;;;;28.57;16.20;;;;;;;;;;5074569;28;20455;-72
2020/12/01 00:04:55;;;;;;;29.80;17.40;;;;;;;;;;5083292;22;20440;-73
2020/12/01 00:07:22;;;;;;;30.33;17.43;;;;;;;;;;5013846;28;20479;-72
2020/12/01 00:09:49;;;;;;;31.10;17.50;;;;;;;;;;5028987;28;20501;-72
2020/12/01 00:12:17;;;;;;;31.80;18.27;;;;;;;;;;5091438;23;20495;-72
2020/12/01 00:14:46;;;;;;;32.47;17.83;;;;;;;;;;5074640;28;20778;-71
2020/12/01 00:17:13;;;;;;;30.50;18.40;;;;;;;;;;5118047;23;20937;-72
2020/12/01 00:19:40;;;;;;;30.43;16.60;;;;;;;;;;5101357;28;20538;-72
2020/12/01 00:22:07;;;;;;;34.03;18.10;;;;;;;;;;5118342;22;20486;-72
2020/12/01 00:24:34;;;;;;;33.07;17.97;;;;;;;;;;5114952;28;20478;-72
2020/12/01 00:27:02;;;;;;;32.93;18.90;;;;;;;;;;5120483;22;21056;-72
2020/12/01 00:29:30;;;;;;;27.07;17.60;;;;;;;;;;5102705;28;20547;-72
2020/12/01 00:31:57;;;;;;;31.30;17.77;;;;;;;;;;5116985;22;20573;-72
2020/12/01 00:34:24;;;;;;;30.83;18.77;;;;;;;;;;5104678;28;20530;-72
2020/12/01 00:36:51;;;;;;;31.73;18.33;;;;;;;;;;5090083;22;20582;-71
2020/12/01 00:39:18;;;;;;;35.20;17.67;;;;;;;;;;5073913;28;20465;-72
2020/12/01 00:41:49;;;;;;;35.67;19.17;;;;;;;;;;5082125;22;20579;-71
2020/12/01 00:44:17;;;;;;;36.10;19.40;;;;;;;;;;5074076;28;20507;-72
2020/12/01 00:46:45;;;;;;;30.73;19.33;;;;;;;;;;5081122;22;20484;-72
2020/12/01 00:49:12;;;;;;;33.50;18.10;;;;;;;;;;5073579;28;20492;-72
2020/12/01 00:51:39;;;;;;;33.27;19.17;;;;;;;;;;5106483;22;20483;-72
2020/12/01 00:54:07;;;;;;;30.97;19.60;;;;;;;;;;5114386;28;20446;-72
2020/12/01 00:56:34;;;;;;;35.47;18.77;;;;;;;;;;5096114;22;20574;-72
2020/12/01 00:59:01;;;;;;;35.03;20.20;;;;;;;;;;5073421;28;20547;-72
2020/12/01 01:01:30;;;;;;;35.17;20.20;;;;;;;;;;5081541;22;20538;-73
2020/12/01 01:03:58;;;;;;;35.20;18.57;;;;;;;;;;5073745;28;20512;-72
2020/12/01 01:06:25;;;;;;;35.80;21.13;;;;;;;;;;5081487;22;20575;-72
2020/12/01 01:08:53;;;;;;;35.17;19.80;;;;;;;;;;5073549;28;20465;-72
2020/12/01 01:11:26;;;;;;;34.50;19.27;;;;;;;;;;5081171;22;20899;-72
2020/12/01 01:13:53;;;;;;;35.17;18.27;;;;;;;;;;5073512;28;20468;-72
2020/12/01 01:16:23;;;;;;;34.37;19.23;;;;;;;;;;5080689;22;20575;-72
2020/12/01 01:18:50;;;;;;;32.30;18.10;;;;;;;;;;5073862;28;20858;-72
2020/12/01 01:21:18;;;;;;;30.10;18.00;;;;;;;;;;5098550;22;20490;-72
2020/12/01 01:23:45;;;;;;;35.87;19.77;;;;;;;;;;5114236;28;20510;-72
2020/12/01 01:26:12;;;;;;;34.47;18.87;;;;;;;;;;5095201;22;20534;-72
2020/12/01 01:28:39;;;;;;;34.23;17.87;;;;;;;;;;5053219;28;20547;-72
2020/12/01 01:31:07;;;;;;;33.43;17.30;;;;;;;;;;5067710;22;20492;-72
2020/12/01 01:33:34;;;;;;;32.07;19.67;;;;;;;;;;5079154;28;20448;-72
2020/12/01 01:36:01;;;;;;;37.33;18.80;;;;;;;;;;5065798;22;20479;-72
2020/12/01 01:38:29;;;;;;;27.87;18.07;;;;;;;;;;5013896;28;20543;-72
2020/12/01 01:40:56;;;;;;;34.70;18.83;;;;;;;;;;5042817;23;20487;-72
2020/12/01 01:43:23;;;;;;;37.57;18.43;;;;;;;;;;5093366;28;21041;-72
2020/12/01 01:45:51;;;;;;;37.80;19.57;;;;;;;;;;5095713;22;20571;-72
2020/12/01 01:48:21;;;;;;;40.57;20.17;;;;;;;;;;5073208;28;20852;-72
2020/12/01 01:50:53;;;;;;;34.27;19.07;;;;;;;;;;5087228;22;20514;-72
2020/12/01 01:53:20;;;;;;;33.10;19.13;;;;;;;;;;5113998;28;20478;-72
2020/12/01 01:55:49;;;;;;;35.43;18.47;;;;;;;;;;5112442;22;21343;-72
2020/12/01 01:58:18;;;;;;;34.77;19.90;;;;;;;;;;5073002;28;20551;-72
2020/12/01 02:03:30;;;;;;;33.70;18.13;;;;;;;;;;5073525;28;20495;-72
2020/12/01 02:05:57;;;;;;;38.37;19.47;;;;;;;;;;5079299;22;20489;-72
2020/12/01 02:08:25;;;;;;;34.97;19.43;;;;;;;;;;5056634;28;20507;-72
2020/12/01 02:10:54;;;;;;;37.50;20.60;;;;;;;;;;5067464;22;20495;-72
2020/12/01 02:13:26;;;;;;;42.53;20.77;;;;;;;;;;5076281;28;20524;-72
2020/12/01 02:15:53;;;;;;;36.73;19.93;;;;;;;;;;5084438;22;20941;-71
2020/12/01 02:18:27;;;;;;;36.97;20.23;;;;;;;;;;5076521;28;20525;-72
2020/12/01 02:20:54;;;;;;;43.63;20.60;;;;;;;;;;5090793;22;20486;-72
2020/12/01 02:23:21;;;;;;;38.53;19.77;;;;;;;;;;5117398;28;20513;-72
2020/12/01 02:25:48;;;;;;;34.20;19.50;;;;;;;;;;5117555;22;20598;-72
2020/12/01 02:28:16;;;;;;;33.80;18.73;;;;;;;;;;5076207;28;20868;-72
2020/12/01 02:30:47;;;;;;;37.13;19.00;;;;;;;;;;5083534;22;20476;-72
2020/12/01 02:33:14;;;;;;;33.40;18.53;;;;;;;;;;5079322;28;20483;-72
2020/12/01 02:35:41;;;;;;;33.07;18.73;;;;;;;;;;5090954;22;20986;-72
2020/12/01 02:38:08;;;;;;;37.83;19.10;;;;;;;;;;5063214;28;20944;-72
2020/12/01 02:40:35;;;;;;;38.30;18.80;;;;;;;;;;5083651;22;20536;-73
2020/12/01 02:43:05;;;;;;;37.20;18.60;;;;;;;;;;5062292;28;20480;-72
2020/12/01 02:45:33;;;;;;;31.73;17.97;;;;;;;;;;5084640;22;20494;-72
2020/12/01 02:48:00;;;;;;;42.17;19.43;;;;;;;;;;5075092;28;20451;-72
2020/12/01 02:50:27;;;;;;;37.27;19.13;;;;;;;;;;5076274;28;20849;-72
2020/12/01 02:52:54;;;;;;;31.37;17.90;;;;;;;;;;5074532;22;20508;-72
2020/12/01 02:55:21;;;;;;;35.83;18.83;;;;;;;;;;5055720;28;20449;-72
2020/12/01 02:57:48;;;;;;;32.73;17.83;;;;;;;;;;5061678;22;20571;-72
2020/12/01 03:00:15;;;;;;;34.80;18.73;;;;;;;;;;5055839;28;20501;-72
2020/12/01 03:02:43;;;;;;;38.03;18.83;;;;;;;;;;5116053;22;20657;-72
2020/12/01 03:05:10;;;;;;;32.10;17.63;;;;;;;;;;5116369;28;20504;-72
2020/12/01 03:07:37;;;;;;;36.23;17.57;;;;;;;;;;5121828;22;20478;-71
2020/12/01 03:10:05;;;;;;;32.07;17.43;;;;;;;;;;5086016;28;20861;-72
2020/12/01 03:12:32;;;;;;;39.37;19.50;;;;;;;;;;5118095;22;20570;-72
2020/12/01 03:15:01;;;;;;;37.17;16.93;;;;;;;;;;5115751;28;20450;-72
2020/12/01 03:17:28;;;;;;;32.37;17.60;;;;;;;;;;5122256;22;20902;-72
2020/12/01 03:19:56;;;;;;;32.70;17.77;;;;;;;;;;5096524;28;20873;-72
2020/12/01 03:22:23;;;;;;;35.70;19.17;;;;;;;;;;5125120;22;20568;-71
2020/12/01 03:24:50;;;;;;;36.83;17.67;;;;;;;;;;5136716;27;20894;-71
2020/12/01 03:27:17;;;;;;;33.80;17.83;;;;;;;;;;5088488;22;20908;-72
2020/12/01 03:29:44;;;;;;;29.87;16.70;;;;;;;;;;5055446;28;20541;-72
2020/12/01 03:32:11;;;;;;;31.43;17.43;;;;;;;;;;5074828;22;20572;-72
2020/12/01 03:34:38;;;;;;;31.50;18.13;;;;;;;;;;5085331;28;20444;-72
2020/12/01 03:37:06;;;;;;;36.30;17.27;;;;;;;;;;5060151;22;21022;-72
2020/12/01 03:39:33;;;;;;;39.47;18.53;;;;;;;;;;5034917;28;20521;-72
2020/12/01 03:42:00;;;;;;;31.17;17.47;;;;;;;;;;5084561;22;20908;-72
2020/12/01 03:44:29;;;;;;;36.37;17.83;;;;;;;;;;5096509;28;20588;-72
2020/12/01 03:46:56;;;;;;;38.83;18.70;;;;;;;;;;5097997;22;20542;-72
2020/12/01 03:49:23;;;;;;;35.67;18.43;;;;;;;;;;5094761;28;20874;-72
2020/12/01 03:51:51;;;;;;;31.17;18.27;;;;;;;;;;5084118;22;20549;-72
2020/12/01 03:54:19;;;;;;;36.93;19.17;;;;;;;;;;5054918;28;20528;-72
2020/12/01 03:56:46;;;;;;;33.40;19.00;;;;;;;;;;5069906;22;20511;-72
2020/12/01 03:59:13;;;;;;;35.50;18.37;;;;;;;;;;5061795;28;20499;-72
2020/12/01 04:01:40;;;;;;;31.83;18.00;;;;;;;;;;5095216;22;20493;-72
2020/12/01 04:04:07;;;;;;;31.17;17.33;;;;;;;;;;5101636;28;20482;-72
2020/12/01 04:06:34;;;;;;;31.43;16.90;;;;;;;;;;5109324;22;20484;-72
2020/12/01 04:09:03;;;;;;;33.13;18.43;;;;;;;;;;5061396;28;20496;-72
2020/12/01 04:11:31;;;;;;;35.83;17.20;;;;;;;;;;5091746;22;20570;-72
2020/12/01 04:13:58;;;;;;;32.97;19.27;;;;;;;;;;5115017;28;20862;-72
2020/12/01 04:16:25;;;;;;;32.50;16.80;;;;;;;;;;5111732;22;20575;-71
2020/12/01 04:18:52;;;;;;;29.67;16.53;;;;;;;;;;5074647;28;20881;-72
2020/12/01 04:21:20;;;;;;;31.70;16.03;;;;;;;;;;5081645;22;20575;-72
2020/12/01 04:23:51;;;;;;;35.00;16.03;;;;;;;;;;5074672;28;20567;-72
2020/12/01 04:26:21;;;;;;;36.67;17.27;;;;;;;;;;5081141;22;20520;-72
2020/12/01 04:28:50;;;;;;;35.53;18.30;;;;;;;;;;5073768;28;20475;-72
2020/12/01 04:31:18;;;;;;;33.07;16.70;;;;;;;;;;5081220;22;20515;-72
2020/12/01 04:33:45;;;;;;;30.97;17.00;;;;;;;;;;5081704;28;20820;-72
2020/12/01 04:36:12;;;;;;;30.30;16.70;;;;;;;;;;5081575;22;20469;-71
2020/12/01 04:38:39;;;;;;;30.97;15.97;;;;;;;;;;5054365;28;20544;-72
2020/12/01 04:41:07;;;;;;;29.07;15.10;;;;;;;;;;5061996;22;20975;-72
2020/12/01 04:43:35;;;;;;;26.20;15.37;;;;;;;;;;5073490;28;20523;-72
2020/12/01 04:46:04;;;;;;;27.90;16.10;;;;;;;;;;5082528;22;20568;-72
2020/12/01 04:48:34;;;;;;;33.20;17.07;;;;;;;;;;5053197;28;20546;-71
2020/12/01 04:51:03;;;;;;;31.77;15.03;;;;;;;;;;5063162;22;20864;-73
2020/12/01 04:53:46;;;;;;;27.97;15.53;;;;;;;;;;5113352;28;20534;-72
2020/12/01 04:56:31;;;;;;;32.53;16.37;;;;;;;;;;5116995;22;20467;-72
2020/12/01 04:59:16;;;;;;;28.20;15.40;;;;;;;;;;5073689;28;20460;-72
2020/12/01 05:02:07;;;;;;;25.73;15.20;;;;;;;;;;5081028;22;20579;-72
2020/12/01 05:04:42;;;;;;;29.63;16.97;;;;;;;;;;5073569;28;20488;-71
2020/12/01 05:07:18;;;;;;;28.23;16.70;;;;;;;;;;5081306;22;21053;-72
2020/12/01 05:09:46;;;;;;;30.57;16.13;;;;;;;;;;5073287;28;20543;-71
2020/12/01 05:12:16;;;;;;;29.07;15.47;;;;;;;;;;5061205;22;21091;-72
2020/12/01 05:14:48;;;;;;;30.73;16.07;;;;;;;;;;5033798;28;20877;-72
2020/12/01 05:17:37;;;;;;;28.03;15.60;;;;;;;;;;5061542;22;20499;-72
2020/12/01 05:20:06;;;;;;;27.67;15.90;;;;;;;;;;5073802;28;20469;-71
2020/12/01 05:22:37;;;;;;;27.10;15.73;;;;;;;;;;5092244;22;20833;-71
2020/12/01 05:25:05;;;;;;;29.23;16.23;;;;;;;;;;5093381;28;20488;-71
2020/12/01 05:27:33;;;;;;;27.77;14.70;;;;;;;;;;5111616;22;20482;-71
2020/12/01 05:30:02;;;;;;;24.77;14.17;;;;;;;;;;5084022;28;20542;-72
2020/12/01 05:32:32;;;;;;;27.93;15.47;;;;;;;;;;5111204;22;20482;-71
2020/12/01 05:35:16;;;;;;;24.43;13.80;;;;;;;;;;5103875;28;20937;-72
2020/12/01 05:37:50;;;;;;;26.50;14.57;;;;;;;;;;5121975;22;20596;-71
2020/12/01 05:40:17;;;;;;;23.87;14.37;;;;;;;;;;5099048;28;21009;-72
2020/12/01 05:42:45;;;;;;;25.93;14.90;;;;;;;;;;5116671;22;20565;-71
2020/12/01 05:45:17;;;;;;;26.87;13.93;;;;;;;;;;5117900;28;20562;-72
2020/12/01 05:47:47;;;;;;;29.57;16.00;;;;;;;;;;5117666;22;20483;-71
2020/12/01 05:50:22;;;;;;;27.07;15.23;;;;;;;;;;5079631;28;20548;-72
2020/12/01 05:52:52;;;;;;;30.80;16.93;;;;;;;;;;5096535;22;20485;-72
2020/12/01 05:55:20;;;;;;;33.30;16.17;;;;;;;;;;5097222;28;20973;-72
2020/12/01 05:58:05;;;;;;;30.17;15.97;;;;;;;;;;5115344;22;20541;-72
2020/12/01 06:00:33;;;;;;;30.30;15.87;;;;;;;;;;5097470;28;20481;-72
2020/12/01 06:03:23;;;;;;;31.93;15.23;;;;;;;;;;5117780;22;20514;-72
2020/12/01 06:05:51;;;;;;;31.13;15.80;;;;;;;;;;5117831;28;20891;-72
2020/12/01 06:08:29;;;;;;;31.40;16.77;;;;;;;;;;5119169;22;20581;-72
2020/12/01 06:11:00;;;;;;;31.30;16.07;;;;;;;;;;5087177;28;20482;-72
2020/12/01 06:13:35;;;;;;;34.13;16.57;;;;;;;;;;5104012;22;20566;-72
2020/12/01 06:16:09;;;;;;;32.40;16.17;;;;;;;;;;5097126;28;20441;-71
2020/12/01 06:18:44;;;;;;;28.57;15.67;;;;;;;;;;5118136;22;20475;-72
2020/12/01 06:21:12;;;;;;;26.70;15.47;;;;;;;;;;5082569;28;20551;-72
2020/12/01 06:23:45;;;;;;;33.30;15.23;;;;;;;;;;5122046;22;20577;-72
2020/12/01 06:29:01;;;;;;;35.73;17.80;;;;;;;;;;5117180;22;21060;-72
2020/12/01 06:31:45;;;;;;;30.13;16.37;;;;;;;;;;5104021;22;20467;-72
2020/12/01 06:34:27;;;;;;;29.77;15.87;;;;;;;;;;5075893;28;20509;-72
2020/12/01 06:37:12;;;;;;;31.23;16.07;;;;;;;;;;5091686;22;20577;-72
2020/12/01 06:39:46;;;;;;;24.80;15.30;;;;;;;;;;5103701;28;20886;-71
2020/12/01 06:42:15;;;;;;;35.00;16.43;;;;;;;;;;5109006;22;20501;-72
2020/12/01 06:44:44;;;;;;;30.90;16.30;;;;;;;;;;5115759;28;20568;-71
2020/12/01 06:49:08;;;;;;;31.13;16.20;;;;;;;;;;5123133;27;20532;-73
2020/12/01 06:54:09;;;;;;;34.57;17.90;;;;;;;;;;5115944;22;20486;-73
2020/12/01 06:56:36;;;;;;;29.80;16.20;;;;;;;;;;5111350;28;20615;-73
2020/12/01 06:59:09;;;;;;;30.70;15.70;;;;;;;;;;5091500;28;20459;-73
2020/12/01 07:01:37;;;;;;;28.90;15.13;;;;;;;;;;5104189;28;20460;-73
2020/12/01 07:04:23;;;;;;;33.07;18.33;;;;;;;;;;5132271;27;20515;-73
2020/12/01 07:09:24;;;;;;;30.77;16.93;;;;;;;;;;5089839;28;20463;-72
2020/12/01 07:14:24;;;;;;;30.97;16.77;;;;;;;;;;5069348;28;20452;-73
2020/12/01 07:16:51;;;;;;;32.93;17.00;;;;;;;;;;5070552;28;20519;-72
2020/12/01 07:19:20;;;;;;;33.07;17.70;;;;;;;;;;5149893;22;20596;-72
2020/12/01 07:24:34;;;;;;;30.60;16.13;;;;;;;;;;5048837;28;20584;-70
2020/12/01 07:27:06;;;;;;;31.87;16.63;;;;;;;;;;5061953;22;20477;-71
2020/12/01 07:30:03;;;;;;;31.63;16.53;;;;;;;;;;5122731;28;20458;-70
2020/12/01 07:32:31;;;;;;;32.70;17.87;;;;;;;;;;5085269;22;20585;-70
2020/12/01 07:35:07;;;;;;;29.93;15.87;;;;;;;;;;5100409;28;20447;-70
2020/12/01 07:37:58;;;;;;;29.33;16.57;;;;;;;;;;5121099;22;20568;-70
2020/12/01 07:40:27;;;;;;;26.00;14.57;;;;;;;;;;5090754;28;21349;-70
2020/12/01 07:42:57;;;;;;;27.03;15.60;;;;;;;;;;5112202;22;20489;-70
2020/12/01 07:45:25;;;;;;;25.60;14.63;;;;;;;;;;5131203;27;20521;-70
2020/12/01 07:47:56;;;;;;;27.43;15.77;;;;;;;;;;5135305;22;20560;-70
2020/12/01 07:50:23;;;;;;;31.00;16.70;;;;;;;;;;5091229;28;20530;-70
2020/12/01 07:52:55;;;;;;;29.90;16.93;;;;;;;;;;5110941;22;20572;-71
2020/12/01 07:55:25;;;;;;;31.77;16.83;;;;;;;;;;5130965;27;20442;-70
2020/12/01 07:57:56;;;;;;;30.43;16.63;;;;;;;;;;5138404;22;20577;-71
2020/12/01 08:00:24;;;;;;;30.43;16.20;;;;;;;;;;5114258;28;20530;-71
2020/12/01 08:02:59;;;;;;;29.23;15.83;;;;;;;;;;5123855;22;20485;-70
2020/12/01 08:05:26;;;;;;;26.47;14.30;;;;;;;;;;5130765;28;20437;-70
2020/12/01 08:07:56;;;;;;;24.67;14.70;;;;;;;;;;5138014;22;20576;-71
2020/12/01 08:10:25;;;;;;;29.03;15.80;;;;;;;;;;5130449;27;20486;-71
2020/12/01 08:12:53;;;;;;;31.27;15.87;;;;;;;;;;5137877;22;20835;-71
2020/12/01 08:15:22;;;;;;;37.03;19.53;;;;;;;;;;5118733;27;20518;-71
2020/12/01 08:17:51;;;;;;;29.93;17.53;;;;;;;;;;5124545;22;20559;-73
2020/12/01 08:20:23;;;;;;;28.23;16.77;;;;;;;;;;5103791;27;20997;-72
2020/12/01 08:22:54;;;;;;;32.90;16.83;;;;;;;;;;5108921;22;21000;-71
2020/12/01 08:25:28;;;;;;;31.70;18.13;;;;;;;;;;5117028;28;20951;-73
2020/12/01 08:27:57;;;;;;;33.33;17.97;;;;;;;;;;5122944;22;20490;-72
2020/12/01 08:30:33;;;;;;;33.63;16.50;;;;;;;;;;5116903;28;20462;-71
2020/12/01 08:33:09;;;;;;;31.40;16.77;;;;;;;;;;5122441;22;20496;-71
2020/12/01 08:35:37;;;;;;;37.97;18.37;;;;;;;;;;5109192;28;20502;-71
2020/12/01 08:38:12;;;;;;;32.30;17.87;;;;;;;;;;5124146;22;20543;-71
2020/12/01 08:40:46;;;;;;;31.23;15.37;;;;;;;;;;5116278;28;20517;-71
2020/12/01 08:43:23;;;;;;;33.37;16.00;;;;;;;;;;5123525;22;20509;-71
2020/12/01 08:45:53;;;;;;;27.97;15.97;;;;;;;;;;5115112;28;20517;-72
2020/12/01 08:48:23;;;;;;;30.67;16.07;;;;;;;;;;5120457;22;20981;-72
2020/12/01 08:50:57;;;;;;;27.93;16.93;;;;;;;;;;5088915;28;20535;-74
2020/12/01 08:53:24;;;;;;;40.77;17.27;;;;;;;;;;5107700;22;20498;-74
2020/12/01 08:55:53;;;;;;;39.27;17.83;;;;;;;;;;5114818;28;20497;-74
2020/12/01 08:58:29;;;;;;;29.93;16.00;;;;;;;;;;5119029;22;20525;-74
2020/12/01 09:00:58;;;;;;;34.17;18.23;;;;;;;;;;5090851;28;20538;-74
2020/12/01 09:03:26;;;;;;;29.53;17.50;;;;;;;;;;5108232;22;20487;-73
2020/12/01 09:05:53;;;;;;;34.53;16.30;;;;;;;;;;5113878;28;20530;-72
2020/12/01 09:08:44;;;;;;;29.87;16.77;;;;;;;;;;5119158;22;21079;-73
2020/12/01 09:14:14;;;;;;;34.97;16.60;;;;;;;;;;5101393;22;20586;-72
2020/12/01 09:16:54;;;;;;;29.47;15.87;;;;;;;;;;5111862;28;20443;-73
2020/12/01 09:24:52;;;;;;;29.23;15.50;;;;;;;;;;5031037;28;20454;-74
2020/12/01 09:27:19;;;;;;;28.47;16.77;;;;;;;;;;5031824;28;20447;-74
2020/12/01 09:29:47;;;;;;;27.93;17.23;;;;;;;;;;5101810;22;20491;-74
2020/12/01 09:32:16;;;;;;;26.87;17.30;;;;;;;;;;5091164;28;20533;-73
2020/12/01 09:34:44;;;;;;;27.53;16.80;;;;;;;;;;5109786;22;20899;-74
2020/12/01 09:37:11;;;;;;;28.40;16.37;;;;;;;;;;5102637;28;20629;-73
2020/12/01 09:39:39;;;;;;;28.73;16.03;;;;;;;;;;5081711;22;20584;-74
2020/12/01 09:42:12;;;;;;;28.97;16.87;;;;;;;;;;5067715;28;20472;-74
2020/12/01 09:45:04;;;;;;;30.90;16.60;;;;;;;;;;5089799;22;20488;-74
2020/12/01 09:47:37;;;;;;;27.87;14.87;;;;;;;;;;5096872;22;20527;-75
2020/12/01 09:50:07;;;;;;;28.73;16.73;;;;;;;;;;5064894;28;20464;-73
2020/12/01 09:52:45;;;;;;;31.97;16.00;;;;;;;;;;5074850;22;20560;-74
2020/12/01 09:55:22;;;;;;;26.53;15.03;;;;;;;;;;5063313;28;20456;-74
2020/12/01 09:57:57;;;;;;;26.87;15.60;;;;;;;;;;5075353;22;20453;-74
2020/12/01 10:00:35;;;;;;;31.50;16.80;;;;;;;;;;5090672;28;20546;-74
2020/12/01 10:08:40;;;;;;;32.30;17.00;;;;;;;;;;5077368;22;21061;-73
2020/12/01 10:11:26;;;;;;;33.50;17.50;;;;;;;;;;5073069;28;21003;-72
2020/12/01 10:14:00;;;;;;;35.23;17.37;;;;;;;;;;5099132;22;20539;-72
2020/12/01 10:36:05;;;;;;;37.07;17.80;;;;;;;;;;5090659;28;20443;-72
2020/12/01 10:38:33;;;;;;;46.50;21.63;;;;;;;;;;5114202;22;20480;-72
2020/12/01 10:41:01;;;;;;;32.60;19.43;;;;;;;;;;5073493;28;20445;-72
2020/12/01 10:43:28;;;;;;;35.07;19.07;;;;;;;;;;5085970;22;20572;-72
2020/12/01 10:45:55;;;;;;;42.37;19.47;;;;;;;;;;5073383;28;20476;-72
2020/12/01 10:48:22;;;;;;;46.87;21.57;;;;;;;;;;5073672;22;20866;-72
2020/12/01 10:50:49;;;;;;;42.97;19.63;;;;;;;;;;5051394;28;20499;-71
2020/12/01 10:53:18;;;;;;;32.73;18.53;;;;;;;;;;5063681;22;20523;-72
2020/12/01 10:55:47;;;;;;;38.83;21.77;;;;;;;;;;5072158;28;20441;-72
2020/12/01 10:58:14;;;;;;;40.20;19.70;;;;;;;;;;5081689;22;20581;-72
2020/12/01 11:00:45;;;;;;;36.43;19.63;;;;;;;;;;5092958;28;20795;-71
2020/12/01 11:03:12;;;;;;;34.80;19.60;;;;;;;;;;5110686;22;20556;-72
2020/12/01 11:05:42;;;;;;;36.20;19.07;;;;;;;;;;5093170;28;20440;-72
2020/12/01 11:08:17;;;;;;;31.43;17.87;;;;;;;;;;5099749;22;20495;-72
2020/12/01 11:10:44;;;;;;;34.03;18.43;;;;;;;;;;5085547;28;20476;-72
2020/12/01 11:13:12;;;;;;;41.10;18.93;;;;;;;;;;5095627;22;21388;-74
2020/12/01 11:15:39;;;;;;;36.77;19.10;;;;;;;;;;5085254;28;20527;-73
2020/12/01 11:18:06;;;;;;;36.73;18.90;;;;;;;;;;5085928;22;20537;-73
2020/12/01 11:20:34;;;;;;;34.97;18.97;;;;;;;;;;5060751;28;20528;-69
2020/12/01 11:23:02;;;;;;;34.97;20.13;;;;;;;;;;5075751;22;20477;-69
2020/12/01 11:25:29;;;;;;;36.77;20.37;;;;;;;;;;5054510;28;20451;-67
2020/12/01 11:27:56;;;;;;;37.40;19.60;;;;;;;;;;5061443;22;20512;-68
2020/12/01 11:30:24;;;;;;;37.60;19.23;;;;;;;;;;5070395;28;20861;-65
2020/12/01 11:35:19;;;;;;;33.17;19.03;;;;;;;;;;5090012;22;21145;-67
2020/12/01 11:37:46;;;;;;;32.57;18.13;;;;;;;;;;5077941;28;20445;-65
2020/12/01 11:40:14;;;;;;;34.23;18.27;;;;;;;;;;5098392;22;20562;-66
2020/12/01 11:42:46;;;;;;;35.27;18.07;;;;;;;;;;5090357;28;20462;-66
2020/12/01 11:45:17;;;;;;;34.37;16.53;;;;;;;;;;5081140;22;20536;-68
2020/12/01 11:47:45;;;;;;;34.63;17.33;;;;;;;;;;5080321;28;20450;-68
2020/12/01 11:50:13;;;;;;;34.87;18.73;;;;;;;;;;5100599;22;20479;-68
2020/12/01 11:52:40;;;;;;;32.80;18.17;;;;;;;;;;5096318;28;20510;-68
2020/12/01 11:55:21;;;;;;;32.23;17.27;;;;;;;;;;5103281;22;20512;-68
2020/12/01 11:57:48;;;;;;;26.50;17.50;;;;;;;;;;5094558;28;20534;-68
2020/12/01 12:00:17;;;;;;;31.13;16.97;;;;;;;;;;5101748;22;20493;-68
2020/12/01 12:02:45;;;;;;;33.27;18.00;;;;;;;;;;5093993;28;20446;-68
2020/12/01 12:05:12;;;;;;;28.87;16.67;;;;;;;;;;5096003;22;20515;-70
2020/12/01 12:07:40;;;;;;;31.30;16.67;;;;;;;;;;5086666;28;20518;-68
2020/12/01 12:10:07;;;;;;;33.83;18.70;;;;;;;;;;5103482;22;21084;-68
2020/12/01 12:12:34;;;;;;;31.83;17.67;;;;;;;;;;5095542;28;20860;-69
2020/12/01 12:15:01;;;;;;;30.17;17.03;;;;;;;;;;5102496;22;20511;-68
2020/12/01 12:17:28;;;;;;;27.03;16.27;;;;;;;;;;5095326;28;20450;-68
2020/12/01 12:19:56;;;;;;;28.17;15.27;;;;;;;;;;5104104;22;20491;-68
2020/12/01 12:22:23;;;;;;;25.63;14.40;;;;;;;;;;5091083;28;20548;-68
2020/12/01 12:24:50;;;;;;;27.60;13.87;;;;;;;;;;5085600;22;20496;-68
2020/12/01 12:27:17;;;;;;;17.97;10.63;;;;;;;;;;5062738;28;20495;-68
2020/12/01 12:29:44;;;;;;;18.77;11.87;;;;;;;;;;5074677;22;21089;-69
2020/12/01 12:32:12;;;;;;;14.37;9.10;;;;;;;;;;5074035;28;20432;-69
2020/12/01 12:34:39;;;;;;;11.80;7.40;;;;;;;;;;5079777;22;20542;-69
2020/12/01 12:37:08;;;;;;;10.67;7.20;;;;;;;;;;5075707;28;20459;-69
2020/12/01 12:39:35;;;;;;;8.83;6.13;;;;;;;;;;5080480;22;20694;-66
2020/12/01 12:42:03;;;;;;;8.93;5.30;;;;;;;;;;5074940;28;20245;-66
2020/12/01 12:44:30;;;;;;;8.57;5.07;;;;;;;;;;5074103;22;20577;-67
2020/12/01 12:46:59;;;;;;;11.00;5.50;;;;;;;;;;5077716;28;20448;-67
2020/12/01 12:49:27;;;;;;;9.03;5.33;;;;;;;;;;5088820;22;20918;-68
2020/12/01 12:51:54;;;;;;;7.20;5.13;;;;;;;;;;5086438;28;20260;-65
2020/12/01 12:54:22;;;;;;;7.53;5.57;;;;;;;;;;5088507;22;20299;-69
2020/12/01 12:56:49;;;;;;;7.80;5.20;;;;;;;;;;5074471;28;20224;-66
2020/12/01 12:59:16;;;;;;;7.30;4.93;;;;;;;;;;5083225;22;20718;-69
2020/12/01 13:01:43;;;;;;;8.10;4.17;;;;;;;;;;5072973;28;20959;-70
2020/12/01 13:04:10;;;;;;;8.07;3.50;;;;;;;;;;5080810;22;20241;-66
2020/12/01 13:06:37;;;;;;;5.77;3.17;;;;;;;;;;5073781;28;20528;-67
2020/12/01 13:09:05;;;;;;;7.57;2.47;;;;;;;;;;5087492;22;20261;-68
2020/12/01 13:11:33;;;;;;;6.07;2.87;;;;;;;;;;5082192;28;20218;-72
2020/12/01 13:14:00;;;;;;;5.43;2.63;;;;;;;;;;5094382;22;20808;-70
2020/12/01 13:16:28;;;;;;;4.20;2.53;;;;;;;;;;5092876;28;20618;-70
2020/12/01 13:18:55;;;;;;;5.97;2.67;;;;;;;;;;5097350;22;20325;-70
2020/12/01 13:21:22;;;;;;;6.93;3.10;;;;;;;;;;5077131;28;20572;-69
2020/12/01 13:23:49;;;;;;;6.87;2.77;;;;;;;;;;5085360;22;20290;-69
2020/12/01 13:26:17;;;;;;;7.57;3.10;;;;;;;;;;5074597;28;20221;-71
2020/12/01 13:28:46;;;;;;;3.87;2.47;;;;;;;;;;5079924;22;20325;-71
2020/12/01 13:31:13;;;;;;;4.00;2.40;;;;;;;;;;5074122;28;20214;-70
2020/12/01 13:33:43;;;;;;;4.80;2.77;;;;;;;;;;5072748;22;20215;-72
2020/12/01 13:36:10;;;;;;;6.73;2.90;;;;;;;;;;5072930;28;20222;-69
2020/12/01 13:38:37;;;;;;;5.37;2.77;;;;;;;;;;5079525;22;20618;-70
2020/12/01 13:41:04;;;;;;;4.73;2.77;;;;;;;;;;5073257;28;20237;-69
2020/12/01 13:43:31;;;;;;;6.67;3.10;;;;;;;;;;5081815;22;20240;-70
2020/12/01 13:45:59;;;;;;;5.53;3.13;;;;;;;;;;5053867;28;20219;-70
2020/12/01 13:48:27;;;;;;;4.67;2.37;;;;;;;;;;5065758;22;20235;-71
2020/12/01 13:50:54;;;;;;;3.60;3.00;;;;;;;;;;5054969;28;20306;-69
2020/12/01 13:53:21;;;;;;;5.10;2.83;;;;;;;;;;5064677;28;20252;-69
2020/12/01 13:55:48;;;;;;;3.57;2.67;;;;;;;;;;5061141;22;20230;-72
2020/12/01 13:58:15;;;;;;;4.57;2.80;;;;;;;;;;5054950;28;20246;-69
2020/12/01 14:00:42;;;;;;;6.53;2.33;;;;;;;;;;5079629;22;20234;-71
2020/12/01 14:03:11;;;;;;;9.40;3.17;;;;;;;;;;5075125;28;20210;-71
2020/12/01 14:05:38;;;;;;;4.67;2.73;;;;;;;;;;5098170;22;20804;-71
2020/12/01 14:08:05;;;;;;;12.33;3.17;;;;;;;;;;5092823;28;20213;-66
2020/12/01 14:10:33;;;;;;;4.07;2.63;;;;;;;;;;5083863;22;20248;-70
2020/12/01 14:13:01;;;;;;;2.60;2.30;;;;;;;;;;5081518;28;20213;-69
2020/12/01 14:15:30;;;;;;;3.57;2.60;;;;;;;;;;5063434;22;20256;-70
2020/12/01 14:17:57;;;;;;;5.40;2.40;;;;;;;;;;5052043;28;20214;-68
2020/12/01 14:20:26;;;;;;;4.70;2.37;;;;;;;;;;5080500;22;20329;-70
2020/12/01 14:22:53;;;;;;;6.53;2.80;;;;;;;;;;5070558;28;20246;-70
2020/12/01 14:25:20;;;;;;;4.43;2.27;;;;;;;;;;5093798;22;20295;-72
2020/12/01 14:27:47;;;;;;;6.73;2.70;;;;;;;;;;5093875;28;20288;-69
2020/12/01 14:30:16;;;;;;;3.53;2.83;;;;;;;;;;5093724;22;20288;-72
2020/12/01 14:32:43;;;;;;;4.20;3.80;;;;;;;;;;5076059;28;20601;-72
2020/12/01 14:35:11;;;;;;;7.27;2.97;;;;;;;;;;5101185;22;20241;-72
2020/12/01 14:37:39;;;;;;;6.57;3.13;;;;;;;;;;5093777;28;20256;-71
2020/12/01 14:40:06;;;;;;;5.37;3.23;;;;;;;;;;5111680;22;20667;-71
2020/12/01 14:42:34;;;;;;;6.47;3.10;;;;;;;;;;5093876;28;20607;-72
2020/12/01 14:45:01;;;;;;;11.07;3.27;;;;;;;;;;5100879;22;20241;-72
2020/12/01 14:47:49;;;;;;;5.03;2.80;;;;;;;;;;5100908;28;20725;-72
2020/12/01 14:50:26;;;;;;;8.40;3.70;;;;;;;;;;5084953;22;20512;-72
2020/12/01 14:52:56;;;;;;;5.03;3.33;;;;;;;;;;5073348;28;20298;-72
2020/12/01 14:55:30;;;;;;;6.73;3.30;;;;;;;;;;5094307;22;20566;-72
2020/12/01 14:58:05;;;;;;;10.07;3.30;;;;;;;;;;5093504;28;20779;-72
2020/12/01 15:00:38;;;;;;;7.37;2.87;;;;;;;;;;5123893;22;20580;-72
2020/12/01 15:03:23;;;;;;;5.33;2.67;;;;;;;;;;5117685;28;20299;-71
2020/12/01 15:06:00;;;;;;;5.57;3.53;;;;;;;;;;5098107;22;20251;-72
2020/12/01 15:11:51;;;;;;;5.73;3.53;;;;;;;;;;5042009;28;20886;-71
2020/12/01 15:14:18;;;;;;;7.60;3.70;;;;;;;;;;5070396;22;20335;-72
2020/12/01 15:17:13;;;;;;;7.63;3.90;;;;;;;;;;5099672;28;20468;-72
2020/12/01 15:19:40;;;;;;;4.57;3.70;;;;;;;;;;5070631;22;20280;-71
2020/12/01 15:22:13;;;;;;;6.60;4.00;;;;;;;;;;5095577;28;20879;-71
2020/12/01 15:24:40;;;;;;;7.93;3.63;;;;;;;;;;5107752;22;20506;-72
2020/12/01 15:27:11;;;;;;;6.27;3.87;;;;;;;;;;5089862;28;20537;-71
2020/12/01 15:29:41;;;;;;;6.13;3.50;;;;;;;;;;5084054;22;20570;-71
2020/12/01 15:32:09;;;;;;;6.43;3.07;;;;;;;;;;5090152;28;20534;-71